Terminal Aerodrome Forecast
Issued by NWS Grand Forks, ND

Home | Current Version | Previous Version | Text Only | Print | Product List | Glossary Off
Versions: 1 2 3 4 5 6 7 8 9 10 11 12 13 14

000
FTUS43 KFGF 150500
TAFGFK
TAF
KGFK 150522Z 1506/1606 VRB03KT P6SM BKN070
     FM150800 VRB02KT P6SM SKC
     FM151800 28010KT P6SM SCT050=

USA.gov is the U.S. government's official web portal to all federal, state and local government web resources and services.